Time;durP1;ratioP1;P1;durP2;ratioP2;P2;SDS_P1;SDS_P2;PMS_P1;PMS_P2;Temp;Humidity;BMP_temperature;BMP_pressure;BME280_temperature;BME280_humidity;BME280_pressure;Samples;Min_cycle;Max_cycle;Signal;HPM_P1;HPM_P2
2021/05/16 00:00:54;;;;;;;1.00;0.83;;;10.60;1.00;;;;;;5090561;28;20495;-71
2021/05/16 00:03:21;;;;;;;0.80;0.70;;;10.50;1.00;;;;;;5091329;28;20539;-71
2021/05/16 00:05:48;;;;;;;2.50;1.30;;;10.50;1.00;;;;;;5090607;28;21038;-71
2021/05/16 00:08:15;;;;;;;0.70;0.70;;;10.50;1.00;;;;;;5090322;28;20444;-71
2021/05/16 00:10:42;;;;;;;1.77;0.97;;;10.60;1.00;;;;;;5079525;28;20462;-71
2021/05/16 00:13:10;;;;;;;2.10;0.87;;;10.60;1.00;;;;;;5089928;28;20523;-72
2021/05/16 00:15:37;;;;;;;1.73;1.00;;;10.70;1.00;;;;;;5093410;28;20460;-71
2021/05/16 00:18:05;;;;;;;1.60;1.03;;;10.60;1.00;;;;;;5092859;28;20556;-73
2021/05/16 00:20:33;;;;;;;1.53;0.80;;;10.70;1.00;;;;;;5093151;28;20448;-73
2021/05/16 00:23:00;;;;;;;2.07;0.90;;;10.60;1.00;;;;;;5092696;28;20806;-71
2021/05/16 00:25:27;;;;;;;1.00;0.70;;;10.70;1.00;;;;;;5092628;28;20563;-71
2021/05/16 00:27:54;;;;;;;1.60;0.87;;;10.60;1.00;;;;;;5092518;28;20540;-71
2021/05/16 00:30:25;;;;;;;2.20;0.80;;;10.70;1.00;;;;;;5092675;28;20449;-71
2021/05/16 00:32:51;;;;;;;4.60;3.60;;;10.70;1.00;;;;;;5092327;28;20448;-73
2021/05/16 00:35:22;;;;;;;3.20;1.13;;;10.80;1.00;;;;;;5092256;28;20456;-70
2021/05/16 00:37:49;;;;;;;2.17;1.00;;;10.90;1.00;;;;;;5091092;28;20449;-70
2021/05/16 00:40:16;;;;;;;2.00;1.40;;;10.90;1.00;;;;;;5093055;28;20523;-70
2021/05/16 00:42:43;;;;;;;2.17;1.10;;;10.90;1.00;;;;;;5092487;28;20569;-70
2021/05/16 00:45:11;;;;;;;1.47;0.80;;;10.90;1.00;;;;;;5102564;28;20483;-70
2021/05/16 00:47:39;;;;;;;1.67;0.80;;;11.00;1.00;;;;;;5091486;28;20812;-70
2021/05/16 00:50:09;;;;;;;4.40;0.80;;;10.90;1.00;;;;;;5092611;28;20893;-70
2021/05/16 00:52:39;;;;;;;2.70;1.00;;;10.90;1.00;;;;;;5087691;28;20588;-70
2021/05/16 00:55:07;;;;;;;2.23;1.10;;;10.90;1.00;;;;;;5093172;28;20521;-71
2021/05/16 00:57:34;;;;;;;1.23;0.90;;;10.90;1.00;;;;;;5092058;28;20532;-70
2021/05/16 01:00:01;;;;;;;1.27;0.70;;;10.80;1.00;;;;;;5092582;28;20827;-70
2021/05/16 01:02:27;;;;;;;0.80;0.80;;;11.00;1.00;;;;;;5091360;28;20445;-71
2021/05/16 01:04:53;;;;;;;1.30;0.80;;;11.00;1.00;;;;;;5091273;28;20480;-71
2021/05/16 01:07:20;;;;;;;1.80;1.20;;;10.90;1.00;;;;;;5091762;28;20445;-70
2021/05/16 01:09:47;;;;;;;0.93;0.80;;;11.00;1.00;;;;;;5091440;28;20476;-70
2021/05/16 01:12:14;;;;;;;3.90;1.00;;;11.00;1.00;;;;;;5098650;28;20490;-70
2021/05/16 01:14:43;;;;;;;1.97;0.80;;;11.00;1.00;;;;;;5090252;28;20447;-70
2021/05/16 01:17:10;;;;;;;1.63;1.10;;;10.90;1.00;;;;;;5091234;28;20515;-69
2021/05/16 01:19:36;;;;;;;1.97;1.20;;;11.00;1.00;;;;;;5091112;28;20539;-70
2021/05/16 01:22:06;;;;;;;3.13;1.33;;;10.90;1.00;;;;;;5090863;28;20582;-70
2021/05/16 01:24:33;;;;;;;6.30;0.87;;;11.00;1.00;;;;;;5088930;28;20464;-71
2021/05/16 01:27:00;;;;;;;2.23;1.00;;;10.90;1.00;;;;;;5090751;28;20491;-70
2021/05/16 01:29:27;;;;;;;2.53;0.90;;;10.90;1.00;;;;;;5092159;28;20467;-68
2021/05/16 01:31:55;;;;;;;7.20;1.00;;;10.80;1.00;;;;;;5091286;28;21072;-70
2021/05/16 01:34:22;;;;;;;7.50;1.10;;;10.90;1.00;;;;;;5091534;28;20453;-70
2021/05/16 01:36:49;;;;;;;2.13;1.00;;;11.00;1.00;;;;;;5091309;28;20455;-70
2021/05/16 01:39:16;;;;;;;1.43;0.90;;;11.00;1.00;;;;;;5091788;28;20475;-71
2021/05/16 01:41:43;;;;;;;1.80;0.93;;;11.00;1.00;;;;;;5090906;28;20452;-70
2021/05/16 01:44:12;;;;;;;3.23;1.50;;;11.00;1.00;;;;;;5091813;28;20452;-70
2021/05/16 01:46:39;;;;;;;3.77;0.80;;;11.00;1.00;;;;;;5091134;28;20444;-70
2021/05/16 01:49:06;;;;;;;2.40;1.07;;;11.00;1.00;;;;;;5090798;28;20449;-71
2021/05/16 01:51:32;;;;;;;1.67;1.20;;;10.90;56.00;;;;;;5089973;28;20971;-70
2021/05/16 01:53:59;;;;;;;4.20;1.03;;;10.90;99.90;;;;;;5090420;28;21044;-69
2021/05/16 01:56:28;;;;;;;4.27;1.23;;;10.70;99.90;;;;;;5091273;28;20486;-70
2021/05/16 01:58:56;;;;;;;2.70;1.00;;;10.60;99.90;;;;;;5090014;28;21237;-70
2021/05/16 02:01:24;;;;;;;5.70;1.47;;;10.60;99.90;;;;;;5090808;28;20516;-71
2021/05/16 02:03:51;;;;;;;1.23;0.90;;;10.60;99.90;;;;;;5089532;28;20963;-70
2021/05/16 02:06:18;;;;;;;2.23;1.00;;;10.60;99.90;;;;;;5090764;28;20487;-70
2021/05/16 02:08:46;;;;;;;1.40;1.10;;;10.60;99.90;;;;;;5090205;28;20440;-70
2021/05/16 02:11:13;;;;;;;2.23;1.10;;;10.70;99.90;;;;;;5091279;28;20480;-70
2021/05/16 02:13:41;;;;;;;3.37;1.10;;;10.60;99.90;;;;;;5090580;28;20524;-70
2021/05/16 02:16:09;;;;;;;4.67;1.00;;;10.60;99.90;;;;;;5091280;28;20887;-70
2021/05/16 02:18:36;;;;;;;1.73;1.20;;;10.70;99.90;;;;;;5090345;28;20493;-67
2021/05/16 02:21:03;;;;;;;4.33;1.20;;;10.60;99.90;;;;;;5090764;28;20960;-70
2021/05/16 02:23:30;;;;;;;1.13;1.03;;;10.50;99.90;;;;;;5091074;28;20541;-70
2021/05/16 02:25:56;;;;;;;2.30;1.13;;;10.50;99.90;;;;;;5090409;28;20815;-70
2021/05/16 02:28:22;;;;;;;1.17;0.83;;;10.50;99.90;;;;;;5090909;28;20464;-71
2021/05/16 02:30:51;;;;;;;4.90;1.50;;;10.60;99.90;;;;;;5090899;28;20500;-70
2021/05/16 02:33:17;;;;;;;4.80;1.33;;;10.50;99.90;;;;;;5091565;28;20484;-70
2021/05/16 02:35:44;;;;;;;1.73;1.00;;;10.50;99.90;;;;;;5090551;28;20962;-70
2021/05/16 02:38:10;;;;;;;3.40;1.27;;;10.50;99.90;;;;;;5091121;28;20532;-70
2021/05/16 02:40:37;;;;;;;1.83;1.10;;;10.50;99.90;;;;;;5090941;28;20447;-68
2021/05/16 02:43:03;;;;;;;3.20;1.40;;;10.40;99.90;;;;;;5091551;28;20444;-70
2021/05/16 02:45:30;;;;;;;1.57;1.30;;;10.40;99.90;;;;;;5091656;28;20480;-70
2021/05/16 02:47:57;;;;;;;3.87;1.37;;;10.40;99.90;;;;;;5090869;28;21160;-70
2021/05/16 02:50:23;;;;;;;2.73;1.30;;;10.60;99.90;;;;;;5091401;28;20519;-71
2021/05/16 02:52:50;;;;;;;1.63;1.10;;;10.50;99.90;;;;;;5090446;28;20500;-70
2021/05/16 02:55:17;;;;;;;1.33;1.20;;;10.50;99.90;;;;;;5091128;28;20471;-70
2021/05/16 02:57:43;;;;;;;3.07;1.33;;;10.50;99.90;;;;;;5090457;28;20939;-71
2021/05/16 03:00:10;;;;;;;1.77;1.23;;;10.50;99.90;;;;;;5091278;28;20453;-70
2021/05/16 03:02:37;;;;;;;1.87;1.00;;;10.50;99.90;;;;;;5091211;28;20457;-70
2021/05/16 03:05:05;;;;;;;5.23;1.80;;;10.60;99.90;;;;;;5091164;28;20566;-70
2021/05/16 03:07:32;;;;;;;3.00;1.17;;;10.70;99.90;;;;;;5091279;28;20861;-70
2021/05/16 03:09:58;;;;;;;1.80;1.40;;;10.60;99.90;;;;;;5090658;28;20536;-71
2021/05/16 03:12:25;;;;;;;2.67;1.43;;;10.60;99.90;;;;;;5090885;28;20468;-70
2021/05/16 03:14:51;;;;;;;1.93;1.13;;;10.70;99.90;;;;;;5090138;28;20951;-70
2021/05/16 03:17:17;;;;;;;4.23;1.60;;;10.80;99.90;;;;;;5091064;28;20475;-70
2021/05/16 03:19:44;;;;;;;3.27;1.60;;;10.80;99.90;;;;;;5090162;28;21041;-70
2021/05/16 03:22:11;;;;;;;1.30;1.20;;;10.70;99.90;;;;;;5090718;28;20440;-70
2021/05/16 03:24:38;;;;;;;2.73;1.40;;;10.60;99.90;;;;;;5090661;28;20980;-70
2021/05/16 03:27:05;;;;;;;3.47;1.70;;;10.60;99.90;;;;;;5090657;28;20940;-71
2021/05/16 03:29:32;;;;;;;1.37;1.00;;;10.60;99.90;;;;;;5090949;28;20444;-70
2021/05/16 03:31:58;;;;;;;8.47;1.27;;;10.50;99.90;;;;;;5090360;28;20444;-70
2021/05/16 03:34:25;;;;;;;2.87;1.33;;;10.50;99.90;;;;;;5091622;28;20541;-70
2021/05/16 03:36:51;;;;;;;1.57;0.90;;;10.60;99.90;;;;;;5094114;28;20440;-70
2021/05/16 03:39:19;;;;;;;4.20;1.50;;;10.70;99.90;;;;;;5094413;28;20444;-70
2021/05/16 03:41:47;;;;;;;3.10;1.30;;;10.70;99.90;;;;;;5094046;28;20535;-70
2021/05/16 03:44:14;;;;;;;4.17;1.23;;;10.70;99.90;;;;;;5094593;28;20444;-70
2021/05/16 03:46:40;;;;;;;1.57;1.23;;;10.60;99.90;;;;;;5094183;28;20446;-69
2021/05/16 03:49:06;;;;;;;2.30;1.30;;;10.70;99.90;;;;;;5093319;28;20451;-71
2021/05/16 03:51:33;;;;;;;1.17;1.07;;;10.70;99.90;;;;;;5094020;28;20524;-70
2021/05/16 03:53:59;;;;;;;1.50;1.40;;;10.80;99.90;;;;;;5093244;28;20889;-70
2021/05/16 03:56:27;;;;;;;2.87;1.33;;;10.80;99.90;;;;;;5094056;28;20534;-70
2021/05/16 03:58:53;;;;;;;2.87;1.23;;;11.00;99.90;;;;;;5093431;28;20436;-70
2021/05/16 04:01:20;;;;;;;3.13;1.20;;;11.00;99.90;;;;;;5094293;28;20919;-69
2021/05/16 04:03:47;;;;;;;2.10;1.03;;;11.00;99.90;;;;;;5093673;28;20455;-70
2021/05/16 04:06:13;;;;;;;1.83;1.07;;;10.90;99.90;;;;;;5093784;28;20484;-69
2021/05/16 04:08:39;;;;;;;1.60;1.07;;;11.00;99.90;;;;;;5094168;28;20451;-70
2021/05/16 04:11:06;;;;;;;1.73;1.00;;;10.90;99.90;;;;;;5093583;28;20443;-70
2021/05/16 04:13:33;;;;;;;1.93;0.97;;;10.80;99.90;;;;;;5093664;28;21184;-69
2021/05/16 04:16:00;;;;;;;1.53;1.07;;;10.80;99.90;;;;;;5092958;28;20451;-70
2021/05/16 04:18:26;;;;;;;2.90;1.20;;;10.80;99.90;;;;;;5093572;28;20577;-69
2021/05/16 04:20:53;;;;;;;1.57;1.10;;;10.80;99.90;;;;;;5093131;28;20444;-69
2021/05/16 04:23:19;;;;;;;1.50;1.40;;;10.70;99.90;;;;;;5093852;28;20539;-70
2021/05/16 04:25:46;;;;;;;1.53;0.97;;;10.80;99.90;;;;;;5092624;28;20478;-69
2021/05/16 04:28:12;;;;;;;1.27;1.00;;;10.90;99.90;;;;;;5093402;28;20936;-69
2021/05/16 04:30:39;;;;;;;2.20;1.40;;;10.80;99.90;;;;;;5093347;28;21001;-70
2021/05/16 04:33:05;;;;;;;1.20;0.90;;;10.70;99.90;;;;;;5092983;28;20794;-70
2021/05/16 04:35:32;;;;;;;2.47;1.07;;;10.70;99.90;;;;;;5093663;28;20543;-70
2021/05/16 04:37:58;;;;;;;2.20;1.20;;;10.80;99.90;;;;;;5092670;28;20465;-70
2021/05/16 04:40:25;;;;;;;2.60;1.83;;;10.70;99.90;;;;;;5093507;28;20436;-69
2021/05/16 04:42:51;;;;;;;2.13;0.80;;;10.70;99.90;;;;;;5092892;28;20915;-69
2021/05/16 04:45:18;;;;;;;1.13;0.77;;;10.70;99.90;;;;;;5093017;28;20571;-69
2021/05/16 04:47:45;;;;;;;2.10;0.93;;;10.80;99.90;;;;;;5092157;28;20870;-67
2021/05/16 04:50:13;;;;;;;2.20;1.20;;;10.80;99.90;;;;;;5092940;28;20441;-69
2021/05/16 04:52:39;;;;;;;1.07;0.90;;;10.70;99.90;;;;;;5092796;28;20476;-69
2021/05/16 04:55:07;;;;;;;1.93;0.83;;;10.70;99.90;;;;;;5092297;28;20480;-69
2021/05/16 04:57:33;;;;;;;2.20;1.37;;;10.70;99.90;;;;;;5092857;28;20455;-69
2021/05/16 05:00:01;;;;;;;0.80;0.80;;;10.70;99.90;;;;;;5092283;28;20445;-69
2021/05/16 05:02:27;;;;;;;2.97;1.30;;;10.60;99.90;;;;;;5093268;28;20449;-69
2021/05/16 05:04:56;;;;;;;1.40;1.30;;;10.80;99.90;;;;;;5092373;28;20472;-69
2021/05/16 05:07:22;;;;;;;2.27;1.23;;;10.80;99.90;;;;;;5092987;28;20436;-69
2021/05/16 05:09:49;;;;;;;1.47;0.90;;;10.80;99.90;;;;;;5092449;28;20527;-69
2021/05/16 05:12:15;;;;;;;1.20;0.90;;;10.90;99.90;;;;;;5092873;28;20515;-69
2021/05/16 05:14:42;;;;;;;3.83;1.50;;;10.90;99.90;;;;;;5092671;28;20449;-69
2021/05/16 05:17:08;;;;;;;2.03;1.13;;;11.00;99.90;;;;;;5091825;28;20457;-69
2021/05/16 05:19:35;;;;;;;1.10;0.83;;;11.00;99.90;;;;;;5092800;28;20495;-69
2021/05/16 05:22:02;;;;;;;1.57;1.00;;;11.10;99.90;;;;;;5092159;28;20471;-70
2021/05/16 05:24:29;;;;;;;2.23;1.30;;;11.10;99.90;;;;;;5092273;28;20502;-69
2021/05/16 05:26:55;;;;;;;1.77;1.27;;;11.20;99.90;;;;;;5091735;28;20518;-69
2021/05/16 05:29:22;;;;;;;1.77;0.93;;;11.30;99.90;;;;;;5092205;28;20445;-70
2021/05/16 05:31:49;;;;;;;1.50;0.87;;;11.30;99.90;;;;;;5091718;28;20523;-69
2021/05/16 05:34:15;;;;;;;1.90;0.83;;;11.20;99.90;;;;;;5092366;28;20524;-70
2021/05/16 05:36:41;;;;;;;1.80;0.80;;;11.10;99.90;;;;;;5092508;28;20436;-69
2021/05/16 05:39:09;;;;;;;3.80;1.20;;;11.00;99.90;;;;;;5091461;28;20531;-69
2021/05/16 05:41:35;;;;;;;1.03;0.70;;;11.00;99.90;;;;;;5091975;28;20436;-69
2021/05/16 05:44:03;;;;;;;5.67;1.10;;;10.90;99.90;;;;;;5091342;28;20941;-70
2021/05/16 05:46:29;;;;;;;1.37;0.80;;;10.80;99.90;;;;;;5091841;28;20476;-69
2021/05/16 05:48:56;;;;;;;2.20;1.13;;;10.80;99.90;;;;;;5091339;28;20448;-69
2021/05/16 05:51:22;;;;;;;1.87;0.80;;;10.80;99.90;;;;;;5092169;28;20445;-69
2021/05/16 05:53:48;;;;;;;1.83;0.80;;;11.00;99.90;;;;;;5091322;28;20495;-69
2021/05/16 05:56:16;;;;;;;3.33;1.07;;;11.10;99.90;;;;;;5091734;28;20956;-69
2021/05/16 05:58:42;;;;;;;2.00;1.07;;;11.10;99.90;;;;;;5091329;28;20987;-69
2021/05/16 06:01:09;;;;;;;1.10;0.70;;;11.10;99.90;;;;;;5090407;28;20502;-69
2021/05/16 06:03:35;;;;;;;3.13;1.40;;;11.10;99.90;;;;;;5091947;28;20468;-69
2021/05/16 06:06:02;;;;;;;1.23;1.00;;;11.00;99.90;;;;;;5090976;28;20555;-69
2021/05/16 06:08:28;;;;;;;2.50;0.93;;;11.00;99.90;;;;;;5091249;28;20552;-69
2021/05/16 06:10:54;;;;;;;1.00;0.67;;;11.00;99.90;;;;;;5090394;28;20460;-70
2021/05/16 06:13:22;;;;;;;3.43;0.90;;;11.20;99.90;;;;;;5091832;28;20448;-70
2021/05/16 06:15:49;;;;;;;2.00;0.93;;;11.30;99.90;;;;;;5090963;28;20979;-68
2021/05/16 06:18:15;;;;;;;3.17;1.83;;;11.40;99.90;;;;;;5077957;28;20901;-68
2021/05/16 06:20:42;;;;;;;2.23;1.37;;;11.50;99.90;;;;;;5077111;28;20523;-67
2021/05/16 06:23:11;;;;;;;3.90;0.87;;;11.50;99.90;;;;;;5090204;28;20452;-69
2021/05/16 06:25:37;;;;;;;1.20;0.80;;;11.60;99.90;;;;;;5091210;28;20480;-69
2021/05/16 06:28:04;;;;;;;4.10;1.20;;;11.70;99.90;;;;;;5090722;28;20433;-70
2021/05/16 06:30:33;;;;;;;2.23;1.00;;;11.70;99.90;;;;;;5090824;28;20527;-70
2021/05/16 06:32:59;;;;;;;1.10;0.90;;;11.70;99.90;;;;;;5089902;28;20467;-69
2021/05/16 06:35:26;;;;;;;1.63;0.80;;;11.90;99.90;;;;;;5091322;28;20817;-69
2021/05/16 06:37:52;;;;;;;1.80;0.90;;;12.00;99.90;;;;;;5084496;28;20592;-69
2021/05/16 06:40:19;;;;;;;2.00;0.83;;;12.00;99.90;;;;;;5078858;28;20568;-76
2021/05/16 06:42:46;;;;;;;1.17;0.70;;;12.20;99.90;;;;;;5090569;28;20540;-69
2021/05/16 06:45:13;;;;;;;1.00;0.60;;;12.20;99.90;;;;;;5088755;28;20835;-71
2021/05/16 06:47:41;;;;;;;2.30;0.77;;;;;;;;;;5091006;28;20447;-71
2021/05/16 06:50:09;;;;;;;1.70;1.20;;;12.30;99.90;;;;;;5090738;28;20472;-74
2021/05/16 06:52:36;;;;;;;1.13;0.80;;;12.90;99.90;;;;;;5091047;28;20571;-69
2021/05/16 06:55:03;;;;;;;1.20;0.70;;;13.00;1.00;;;;;;5075593;28;20461;-68
2021/05/16 06:57:29;;;;;;;1.03;0.80;;;13.10;1.00;;;;;;5081140;28;20445;-67
2021/05/16 06:59:55;;;;;;;1.87;0.83;;;13.10;16.40;;;;;;5080443;28;20452;-70
2021/05/16 07:02:22;;;;;;;2.57;0.97;;;13.20;99.90;;;;;;5073509;28;20449;-70
2021/05/16 07:04:49;;;;;;;2.30;0.70;;;;;;;;;;5070595;28;20540;-70
2021/05/16 07:07:16;;;;;;;1.63;0.70;;;;;;;;;;5082200;28;20448;-70
2021/05/16 07:09:43;;;;;;;0.77;0.70;;;;;;;;;;5092214;28;20501;-70
2021/05/16 07:12:10;;;;;;;2.13;1.13;;;;;;;;;;5094277;28;20531;-68
2021/05/16 07:14:36;;;;;;;3.50;0.90;;;;;;;;;;5095095;28;20513;-69
2021/05/16 07:17:03;;;;;;;3.70;0.90;;;;;;;;;;5092331;28;20995;-73
2021/05/16 07:19:30;;;;;;;1.27;1.00;;;;;;;;;;5094063;28;20448;-70
2021/05/16 07:21:57;;;;;;;1.00;0.80;;;;;;;;;;5094197;28;20449;-69
2021/05/16 07:24:24;;;;;;;3.13;0.73;;;;;;;;;;5094701;28;20519;-70
2021/05/16 07:26:51;;;;;;;1.27;0.90;;;;;;;;;;5094660;28;20495;-71
2021/05/16 07:29:17;;;;;;;1.73;0.90;;;;;;;;;;5094279;28;20459;-71
2021/05/16 07:31:44;;;;;;;0.70;0.60;;;;;;;;;;5094350;28;20532;-71
2021/05/16 07:34:11;;;;;;;0.80;0.60;;;;;;;;;;5093888;28;20456;-72
2021/05/16 07:36:38;;;;;;;0.80;0.67;;;;;;;;;;5094658;28;20480;-72
2021/05/16 07:39:06;;;;;;;2.87;0.63;;;;;;;;;;5093644;28;20437;-72
2021/05/16 07:41:32;;;;;;;2.13;0.90;;;;;;;;;;5089514;28;20490;-71
2021/05/16 07:43:59;;;;;;;1.10;0.77;;;;;;;;;;5093567;28;20433;-71
2021/05/16 07:46:26;;;;;;;1.83;0.80;;;;;;;;;;5094085;28;20479;-70
2021/05/16 07:48:52;;;;;;;1.20;0.80;;;;;;;;;;5094903;28;20472;-71
2021/05/16 07:51:19;;;;;;;4.33;0.90;;;;;;;;;;5093895;28;20472;-69
2021/05/16 07:53:46;;;;;;;1.77;1.00;;;;;;;;;;5094160;28;20564;-71
2021/05/16 07:56:13;;;;;;;3.60;0.87;;;;;;;;;;5093347;28;20528;-70
2021/05/16 07:58:40;;;;;;;0.97;0.70;;;;;;;;;;5094231;28;20546;-69
2021/05/16 08:01:07;;;;;;;2.13;0.80;;;;;;;;;;5093544;28;20467;-70
2021/05/16 08:03:33;;;;;;;1.00;0.80;;;13.30;99.90;;;;;;5094125;28;20452;-70
2021/05/16 08:05:59;;;;;;;2.40;1.43;;;14.10;99.90;;;;;;5093108;28;20484;-70
2021/05/16 08:08:26;;;;;;;2.10;1.00;;;14.10;1.00;;;;;;5093758;28;20576;-71
2021/05/16 08:10:52;;;;;;;2.20;1.03;;;13.70;99.90;;;;;;5093664;28;20435;-77
2021/05/16 08:13:19;;;;;;;2.30;0.90;;;13.10;1.00;;;;;;5086404;28;20537;-82
2021/05/16 08:15:46;;;;;;;1.27;0.90;;;12.40;1.00;;;;;;5087366;28;20565;-75
2021/05/16 08:18:12;;;;;;;1.83;1.03;;;12.20;99.90;;;;;;5087064;28;20890;-74
2021/05/16 08:20:39;;;;;;;1.97;1.17;;;12.10;99.90;;;;;;5079817;28;20544;-74
2021/05/16 08:23:05;;;;;;;1.33;0.90;;;12.00;99.90;;;;;;5090769;28;20548;-75
2021/05/16 08:25:33;;;;;;;0.70;0.70;;;11.80;99.90;;;;;;5090835;28;20500;-74
2021/05/16 08:28:01;;;;;;;1.77;0.90;;;11.70;99.90;;;;;;5090117;28;20528;-74
2021/05/16 08:30:28;;;;;;;4.17;0.80;;;11.80;99.90;;;;;;5077938;28;20454;-74
2021/05/16 08:32:55;;;;;;;2.80;1.20;;;11.90;99.90;;;;;;5068867;28;20445;-72
2021/05/16 08:35:21;;;;;;;2.80;1.33;;;12.00;99.90;;;;;;5079477;28;20448;-74
2021/05/16 08:37:48;;;;;;;5.17;1.30;;;12.20;99.90;;;;;;5081114;28;20532;-75
2021/05/16 08:40:15;;;;;;;3.07;1.80;;;12.30;99.90;;;;;;5088358;28;20498;-74
2021/05/16 08:42:42;;;;;;;1.33;0.73;;;12.40;99.90;;;;;;5090158;28;20812;-75
2021/05/16 08:45:11;;;;;;;1.50;0.70;;;12.50;99.90;;;;;;5090320;28;20630;-77
2021/05/16 08:47:40;;;;;;;1.93;1.20;;;12.80;99.90;;;;;;5090593;28;20548;-73
2021/05/16 08:50:09;;;;;;;3.43;0.83;;;12.90;99.90;;;;;;5088913;28;20526;-72
2021/05/16 08:52:37;;;;;;;3.97;1.43;;;13.00;1.00;;;;;;5089980;28;20480;-71
2021/05/16 08:55:04;;;;;;;1.10;1.00;;;13.10;1.00;;;;;;5089852;28;20871;-72
2021/05/16 08:57:31;;;;;;;4.27;1.90;;;13.40;1.00;;;;;;5090528;28;20527;-71
2021/05/16 09:00:20;;;;;;;2.10;1.10;;;13.50;1.00;;;;;;5090250;28;20472;-71
2021/05/16 09:03:08;;;;;;;4.20;1.43;;;13.80;99.90;;;;;;5086300;28;20888;-70
2021/05/16 09:05:38;;;;;;;2.50;1.10;;;13.80;99.90;;;;;;5089816;28;20925;-73
2021/05/16 09:08:07;;;;;;;4.93;1.33;;;13.90;1.00;;;;;;5089133;28;20476;-69
2021/05/16 09:10:35;;;;;;;1.90;1.07;;;14.10;99.90;;;;;;5090410;28;20441;-69
2021/05/16 09:13:14;;;;;;;3.40;1.50;;;14.30;99.90;;;;;;5089981;28;20448;-72
2021/05/16 09:15:40;;;;;;;4.53;1.40;;;14.50;1.00;;;;;;5089737;28;20433;-73
2021/05/16 09:18:07;;;;;;;3.40;1.13;;;14.80;95.30;;;;;;5089925;28;20881;-72
2021/05/16 09:20:34;;;;;;;2.10;1.27;;;14.70;99.90;;;;;;5089900;28;20540;-72
2021/05/16 09:23:00;;;;;;;4.70;1.87;;;14.60;99.90;;;;;;5090358;28;20491;-73
2021/05/16 09:25:30;;;;;;;3.00;1.23;;;14.50;1.00;;;;;;5087335;28;20476;-71
2021/05/16 09:28:10;;;;;;;2.00;1.10;;;14.70;1.00;;;;;;5089228;28;20448;-71
2021/05/16 09:30:37;;;;;;;3.03;1.73;;;15.00;99.90;;;;;;5085201;28;20459;-72
2021/05/16 09:33:05;;;;;;;3.37;1.00;;;15.10;99.90;;;;;;5081787;28;20453;-72
2021/05/16 09:35:44;;;;;;;9.10;1.67;;;15.20;1.00;;;;;;5089208;28;20441;-72
2021/05/16 09:38:13;;;;;;;2.87;0.90;;;15.50;1.00;;;;;;5088423;28;20428;-72
2021/05/16 09:40:42;;;;;;;3.17;1.20;;;15.80;1.00;;;;;;5089277;28;20804;-72
2021/05/16 09:43:20;;;;;;;5.33;1.80;;;15.70;1.00;;;;;;5088631;28;20821;-74
2021/05/16 09:45:56;;;;;;;2.50;0.87;;;15.60;1.00;;;;;;5089806;28;20980;-71
2021/05/16 09:48:36;;;;;;;1.30;0.70;;;15.70;99.90;;;;;;5089141;28;20467;-72
2021/05/16 09:51:18;;;;;;;3.77;1.27;;;15.80;99.90;;;;;;5089583;28;20439;-72
2021/05/16 09:53:59;;;;;;;1.30;0.80;;;16.00;99.90;;;;;;5089554;28;20567;-72
2021/05/16 09:56:27;;;;;;;2.43;0.90;;;16.00;99.90;;;;;;5088858;28;20440;-71
2021/05/16 09:58:56;;;;;;;3.23;0.80;;;16.20;99.90;;;;;;5089049;28;20448;-70
2021/05/16 10:01:24;;;;;;;3.80;1.43;;;16.10;99.90;;;;;;5088051;28;20452;-72
2021/05/16 10:03:51;;;;;;;6.70;1.10;;;16.20;99.90;;;;;;5088926;28;20449;-72
2021/05/16 10:06:19;;;;;;;4.30;1.23;;;16.10;99.90;;;;;;5088004;28;20635;-74
2021/05/16 10:08:48;;;;;;;2.60;1.33;;;16.30;99.90;;;;;;5069181;28;20449;-72
2021/05/16 10:11:16;;;;;;;2.43;1.00;;;16.50;99.90;;;;;;5075892;28;20480;-74
2021/05/16 10:13:48;;;;;;;4.50;1.23;;;16.60;99.90;;;;;;5089112;28;20483;-71
2021/05/16 10:16:18;;;;;;;2.93;1.23;;;16.70;99.90;;;;;;5088927;28;20444;-79
2021/05/16 10:18:46;;;;;;;7.87;4.77;;;16.80;99.90;;;;;;5089785;28;20437;-71
2021/05/16 10:21:12;;;;;;;1.97;0.90;;;17.00;99.90;;;;;;5084580;28;20719;-74
2021/05/16 10:23:41;;;;;;;1.67;0.70;;;17.20;99.90;;;;;;5078235;28;20560;-70
2021/05/16 10:26:22;;;;;;;3.97;1.20;;;17.40;99.90;;;;;;5096655;28;20513;-72
2021/05/16 10:29:04;;;;;;;3.13;1.03;;;17.40;99.90;;;;;;5087494;28;20449;-71
2021/05/16 10:31:44;;;;;;;5.33;1.43;;;17.30;99.90;;;;;;5086447;28;20536;-71
2021/05/16 10:34:40;;;;;;;1.70;1.10;;;17.60;99.90;;;;;;5088292;28;20495;-71
2021/05/16 10:37:07;;;;;;;8.47;1.60;;;17.60;99.90;;;;;;5088661;28;20523;-71
2021/05/16 10:39:52;;;;;;;1.83;0.90;;;17.50;99.90;;;;;;5088810;28;20476;-70
2021/05/16 10:42:20;;;;;;;3.40;0.70;;;17.10;99.90;;;;;;5084586;28;20881;-73
2021/05/16 10:44:57;;;;;;;2.40;1.67;;;17.10;99.90;;;;;;5081270;28;20543;-72
2021/05/16 10:47:56;;;;;;;4.10;1.20;;;16.80;99.90;;;;;;5088356;28;20455;-72
2021/05/16 10:51:00;;;;;;;3.90;1.10;;;16.70;99.90;;;;;;5067765;28;21002;-73
2021/05/16 10:53:41;;;;;;;3.00;1.10;;;16.50;99.90;;;;;;5071652;28;20516;-73
2021/05/16 10:56:19;;;;;;;5.90;1.10;;;16.80;99.90;;;;;;5080006;28;20939;-73
2021/05/16 10:58:52;;;;;;;4.70;1.30;;;17.00;99.90;;;;;;5088193;28;20494;-73
2021/05/16 11:01:30;;;;;;;4.40;1.67;;;17.20;99.90;;;;;;5087090;28;20441;-71
2021/05/16 11:03:58;;;;;;;1.83;1.00;;;17.50;99.90;;;;;;5085779;28;20541;-73
2021/05/16 11:06:46;;;;;;;1.60;1.20;;;17.20;99.90;;;;;;5085954;28;20480;-72
2021/05/16 11:09:14;;;;;;;1.87;0.83;;;17.30;99.90;;;;;;5087332;28;20961;-71
2021/05/16 11:11:56;;;;;;;2.20;0.80;;;17.40;99.90;;;;;;5087724;28;20738;-71
2021/05/16 11:14:25;;;;;;;2.60;1.10;;;17.70;99.90;;;;;;5086695;28;20436;-73
2021/05/16 11:16:54;;;;;;;2.60;1.30;;;18.00;99.90;;;;;;5087847;28;20929;-72
2021/05/16 11:19:22;;;;;;;3.40;1.27;;;18.10;99.90;;;;;;5086965;28;20948;-73
2021/05/16 11:21:49;;;;;;;2.67;1.30;;;17.90;99.90;;;;;;5088429;28;20543;-72
2021/05/16 11:24:16;;;;;;;3.27;0.80;;;18.20;99.90;;;;;;5087368;28;20547;-73
2021/05/16 11:26:43;;;;;;;3.97;1.73;;;18.20;94.50;;;;;;5087656;28;20469;-71
2021/05/16 11:29:11;;;;;;;5.03;2.70;;;18.10;93.20;;;;;;5087219;28;20481;-73
2021/05/16 11:31:37;;;;;;;1.40;0.80;;;18.40;92.30;;;;;;5084830;28;20451;-73
2021/05/16 11:34:06;;;;;;;2.13;0.93;;;18.60;70.30;;;;;;5087654;28;20933;-71
2021/05/16 11:36:34;;;;;;;3.10;0.90;;;18.90;68.10;;;;;;5087008;28;20484;-72
2021/05/16 11:39:02;;;;;;;2.70;1.37;;;18.70;51.90;;;;;;5087854;28;20449;-71
2021/05/16 11:41:32;;;;;;;2.00;1.40;;;18.70;46.10;;;;;;5088096;28;20437;-71
2021/05/16 11:43:59;;;;;;;3.30;1.10;;;18.70;48.50;;;;;;5088434;28;20440;-71
2021/05/16 11:46:29;;;;;;;2.50;1.00;;;18.80;41.40;;;;;;5087363;28;20480;-72
2021/05/16 11:48:56;;;;;;;3.37;0.90;;;19.00;34.90;;;;;;5088264;28;20981;-73
2021/05/16 11:51:23;;;;;;;2.10;0.77;;;18.70;24.20;;;;;;5087814;28;20527;-72
2021/05/16 11:53:57;;;;;;;2.30;0.87;;;19.00;26.50;;;;;;5087560;28;20479;-71
2021/05/16 11:56:25;;;;;;;2.20;1.07;;;19.40;21.50;;;;;;5090166;28;20451;-72
2021/05/16 11:58:54;;;;;;;1.53;0.80;;;19.50;20.20;;;;;;5091478;28;20868;-70
2021/05/16 12:01:22;;;;;;;3.00;1.27;;;19.30;22.60;;;;;;5070926;28;20442;-72
2021/05/16 12:03:57;;;;;;;2.67;1.00;;;18.70;21.90;;;;;;5078308;28;20436;-72
2021/05/16 12:06:23;;;;;;;1.50;0.90;;;18.50;22.80;;;;;;5091295;28;20467;-72
2021/05/16 12:09:01;;;;;;;1.53;0.90;;;18.50;27.10;;;;;;5091879;28;20548;-72
2021/05/16 12:11:29;;;;;;;4.27;0.80;;;18.50;29.80;;;;;;5090416;28;20889;-73
2021/05/16 12:14:14;;;;;;;6.70;1.03;;;18.60;33.80;;;;;;5090905;28;20440;-71
2021/05/16 12:16:41;;;;;;;2.10;1.00;;;18.70;37.10;;;;;;5090546;28;20487;-73
2021/05/16 12:19:08;;;;;;;2.10;0.90;;;18.90;35.80;;;;;;5090234;28;20437;-69
2021/05/16 12:21:36;;;;;;;1.53;0.70;;;18.70;35.80;;;;;;5091010;28;20474;-71
2021/05/16 12:24:05;;;;;;;1.70;0.80;;;18.80;26.10;;;;;;5090954;28;20756;-70
2021/05/16 12:26:34;;;;;;;1.77;1.20;;;18.80;25.70;;;;;;5090482;28;20494;-70
2021/05/16 12:29:02;;;;;;;4.00;1.13;;;18.40;23.10;;;;;;5091285;28;20451;-69
2021/05/16 12:31:29;;;;;;;3.93;0.80;;;18.40;23.40;;;;;;5088393;28;20809;-70
2021/05/16 12:34:00;;;;;;;1.17;0.70;;;18.30;24.50;;;;;;5090760;28;20471;-70
2021/05/16 12:36:28;;;;;;;2.30;0.60;;;18.50;25.90;;;;;;5090713;28;20445;-70
2021/05/16 12:38:55;;;;;;;7.73;1.27;;;18.40;24.90;;;;;;5090717;28;20535;-71
2021/05/16 12:41:25;;;;;;;2.50;0.70;;;18.50;27.40;;;;;;5090505;28;20527;-82
2021/05/16 12:44:10;;;;;;;2.00;1.00;;;18.50;25.30;;;;;;5083199;28;20938;-70
2021/05/16 12:46:41;;;;;;;2.20;1.50;;;18.70;36.00;;;;;;5089133;28;20851;-71
2021/05/16 12:49:08;;;;;;;2.10;0.80;;;18.90;22.80;;;;;;5090350;28;20524;-71
2021/05/16 12:51:35;;;;;;;2.30;0.90;;;18.80;22.10;;;;;;5090077;28;20528;-71
2021/05/16 12:54:19;;;;;;;1.73;0.90;;;18.80;22.30;;;;;;5085395;28;21083;-71
2021/05/16 12:56:49;;;;;;;1.67;1.20;;;18.60;25.30;;;;;;5070451;28;20889;-72
2021/05/16 12:59:27;;;;;;;1.70;0.80;;;18.90;27.30;;;;;;5070423;28;20599;-71
2021/05/16 13:02:04;;;;;;;1.30;0.90;;;18.80;27.80;;;;;;5074128;28;20438;-71
2021/05/16 13:04:30;;;;;;;2.10;0.77;;;18.60;27.60;;;;;;5085536;28;20436;-71